Time;durP1;ratioP1;P1;durP2;ratioP2;P2;SDS_P1;SDS_P2;PMS_P1;PMS_P2;Temp;Humidity;BMP_temperature;BMP_pressure;BME280_temperature;BME280_humidity;BME280_pressure;Samples;Min_cycle;Max_cycle;Signal;HPM_P1;HPM_P2
2022/03/18 00:02:10;;;;;;;;;;;;;;;1.72;71.51;101679.47;5052107;28;19934;-38
2022/03/18 00:04:36;;;;;;;;;;;;;;;1.50;71.38;101683.44;5052144;28;19912;-36
2022/03/18 00:07:01;;;;;;;;;;;;;;;1.48;69.96;101673.97;5069764;28;19912;-37
2022/03/18 00:09:27;;;;;;;;;;;;;;;1.59;70.45;101682.00;5071777;28;19919;-36
2022/03/18 00:11:52;;;;;;;;;;;;;;;1.49;70.15;101689.63;5071711;28;19908;-36
2022/03/18 00:14:19;;;;;;;;;;;;;;;2.32;67.80;101693.91;5071969;28;19915;-37
2022/03/18 00:16:45;;;;;;;;;;;;;;;1.86;69.17;101694.31;5071785;28;19919;-37
2022/03/18 00:19:10;;;;;;;;;;;;;;;1.35;71.41;101693.13;5070791;28;19912;-36
2022/03/18 00:21:36;;;;;;;;;;;;;;;1.56;71.67;101690.94;5072286;28;19916;-37
2022/03/18 00:24:03;;;;;;;;;;;;;;;1.41;72.94;101684.03;5072105;28;19995;-37
2022/03/18 00:26:29;;;;;;;;;;;;;;;1.31;72.13;101689.03;5072046;28;20381;-37
2022/03/18 00:28:54;;;;;;;;;;;;;;;1.14;72.81;101679.56;5072152;28;19969;-37
2022/03/18 00:31:19;;;;;;;;;;;;;;;1.58;70.06;101682.09;5072010;28;19909;-37
2022/03/18 00:33:45;;;;;;;;;;;;;;;1.45;69.29;101689.94;5071786;28;19966;-37
2022/03/18 00:36:10;;;;;;;;;;;;;;;1.68;70.41;101684.06;5066767;28;19909;-37
2022/03/18 00:38:35;;;;;;;;;;;;;;;1.41;69.02;101686.66;5064439;28;19965;-36
2022/03/18 00:41:01;;;;;;;;;;;;;;;1.22;70.79;101683.47;5071847;28;19912;-36
2022/03/18 00:43:26;;;;;;;;;;;;;;;1.17;70.27;101687.22;5071884;28;19908;-36
2022/03/18 00:45:51;;;;;;;;;;;;;;;1.02;71.09;101700.47;5071554;28;19970;-36
2022/03/18 00:53:45;;;;;;;;;;;;;;;1.10;69.84;101685.09;5071863;28;19919;-37
2022/03/18 00:56:10;;;;;;;;;;;;;;;1.23;70.22;101679.94;5071331;28;20362;-37
2022/03/18 00:58:36;;;;;;;;;;;;;;;1.33;69.86;101681.91;5071380;28;20249;-36
2022/03/18 01:01:01;;;;;;;;;;;;;;;1.43;69.08;101692.66;5071526;28;19966;-37
2022/03/18 01:03:27;;;;;;;;;;;;;;;1.26;69.57;101690.25;5071469;28;19908;-37
2022/03/18 01:05:52;;;;;;;;;;;;;;;1.26;69.63;101691.06;5062966;28;19916;-37
2022/03/18 01:08:17;;;;;;;;;;;;;;;0.94;70.08;101707.00;5051402;28;19978;-37
2022/03/18 01:10:44;;;;;;;;;;;;;;;1.21;70.44;101710.66;5051414;28;19909;-37
2022/03/18 01:13:09;;;;;;;;;;;;;;;1.17;70.54;101710.00;5033295;28;19909;-37
2022/03/18 01:15:35;;;;;;;;;;;;;;;1.12;70.35;101702.44;5051028;28;19908;-37
2022/03/18 01:18:00;;;;;;;;;;;;;;;1.27;70.76;101705.03;5051078;28;19908;-36
2022/03/18 01:20:25;;;;;;;;;;;;;;;1.60;68.97;101706.47;5051106;28;19920;-37
2022/03/18 01:22:51;;;;;;;;;;;;;;;1.59;68.88;101721.38;5051326;28;19917;-37
2022/03/18 01:25:16;;;;;;;;;;;;;;;1.55;69.15;101714.66;5050987;28;19917;-37
2022/03/18 01:27:43;;;;;;;;;;;;;;;1.62;68.72;101707.22;5051067;28;20353;-37
2022/03/18 01:30:09;;;;;;;;;;;;;;;1.86;68.21;101721.41;5050936;28;19912;-37
2022/03/18 01:32:35;;;;;;;;;;;;;;;1.91;67.18;101723.75;5051060;28;19928;-37
2022/03/18 01:35:01;;;;;;;;;;;;;;;1.25;70.61;101733.13;5050791;28;19909;-36
2022/03/18 01:37:26;;;;;;;;;;;;;;;1.39;70.02;101727.03;5050687;28;19916;-37
2022/03/18 01:39:52;;;;;;;;;;;;;;;1.39;70.12;101729.66;5050990;28;19920;-36
2022/03/18 01:42:17;;;;;;;;;;;;;;;1.41;69.21;101727.78;5050976;28;19959;-36
2022/03/18 01:44:43;;;;;;;;;;;;;;;1.87;68.88;101728.34;5050889;28;19915;-36
2022/03/18 01:47:09;;;;;;;;;;;;;;;1.55;69.25;101720.72;5051385;28;19966;-37
2022/03/18 01:49:34;;;;;;;;;;;;;;;1.58;70.19;101729.34;5050873;28;19923;-38
2022/03/18 01:52:00;;;;;;;;;;;;;;;1.54;69.67;101732.19;5050293;28;19999;-37
2022/03/18 01:57:09;;;;;;;;;;;;;;;1.76;68.39;101746.56;5050481;28;19939;-37
2022/03/18 01:59:34;;;;;;;;;;;;;;;1.60;68.82;101735.34;5050234;28;19917;-37
2022/03/18 02:01:59;;;;;;;;;;;;;;;1.68;69.28;101743.59;5050515;28;20336;-37
2022/03/18 02:04:26;;;;;;;;;;;;;;;1.68;68.50;101749.69;5050259;28;19962;-37
2022/03/18 02:06:52;;;;;;;;;;;;;;;1.59;70.97;101747.63;5066912;28;19931;-37
2022/03/18 02:09:18;;;;;;;;;;;;;;;1.60;70.09;101756.34;5070142;28;19908;-37
2022/03/18 02:11:43;;;;;;;;;;;;;;;1.62;69.69;101751.84;5070274;28;20498;-37
2022/03/18 02:14:08;;;;;;;;;;;;;;;1.55;69.39;101749.59;5070312;28;19985;-37
2022/03/18 02:16:34;;;;;;;;;;;;;;;1.45;69.79;101755.53;5069853;28;19912;-37
2022/03/18 02:18:59;;;;;;;;;;;;;;;1.47;70.51;101749.25;5070192;28;20364;-37
2022/03/18 02:21:26;;;;;;;;;;;;;;;1.51;69.86;101761.22;5070244;28;19912;-37
2022/03/18 02:23:51;;;;;;;;;;;;;;;1.69;68.60;101761.00;5069985;28;19923;-37
2022/03/18 02:26:17;;;;;;;;;;;;;;;1.51;69.15;101750.72;5069884;28;19916;-38
2022/03/18 02:28:42;;;;;;;;;;;;;;;1.48;70.05;101756.16;5070133;28;19951;-37
2022/03/18 02:31:07;;;;;;;;;;;;;;;1.41;70.47;101762.75;5070516;28;20357;-38
2022/03/18 02:33:33;;;;;;;;;;;;;;;1.38;70.38;101765.56;5052463;28;19908;-38
2022/03/18 02:35:58;;;;;;;;;;;;;;;1.54;69.97;101765.44;5070482;28;19908;-37
2022/03/18 02:38:23;;;;;;;;;;;;;;;1.52;70.29;101768.19;5057671;28;19909;-37
2022/03/18 02:40:49;;;;;;;;;;;;;;;1.33;70.21;101759.72;5050195;28;19913;-37
2022/03/18 02:43:14;;;;;;;;;;;;;;;1.35;70.44;101763.09;5053163;28;20515;-37
2022/03/18 02:45:40;;;;;;;;;;;;;;;0.93;71.27;101768.25;5053913;28;19909;-36
2022/03/18 02:48:06;;;;;;;;;;;;;;;1.23;71.03;101779.59;5053632;28;20297;-35
2022/03/18 02:50:32;;;;;;;;;;;;;;;0.92;71.53;101774.41;5053688;28;20431;-36
2022/03/18 02:52:57;;;;;;;;;;;;;;;0.94;71.99;101771.72;5053365;28;19909;-37
2022/03/18 02:55:22;;;;;;;;;;;;;;;1.02;72.39;101768.63;5053582;28;19908;-37
2022/03/18 02:57:47;;;;;;;;;;;;;;;1.34;70.79;101772.75;5053651;28;19928;-38
2022/03/18 03:00:13;;;;;;;;;;;;;;;1.02;72.48;101781.75;5053459;28;19912;-36
2022/03/18 03:02:38;;;;;;;;;;;;;;;1.10;71.03;101787.38;5053585;28;19916;-37
2022/03/18 03:07:59;;;;;;;;;;;;;;;1.37;70.41;101795.34;5073139;28;19920;-37
2022/03/18 03:10:34;;;;;;;;;;;;;;;1.13;71.16;101793.28;5073441;28;20003;-37
2022/03/18 03:13:01;;;;;;;;;;;;;;;1.30;70.03;101796.66;5073563;28;19912;-37
2022/03/18 03:15:26;;;;;;;;;;;;;;;1.54;70.55;101796.94;5073674;28;20359;-37
2022/03/18 03:17:52;;;;;;;;;;;;;;;1.19;70.92;101799.94;5073605;28;19908;-37
2022/03/18 03:20:17;;;;;;;;;;;;;;;0.98;71.63;101795.03;5073574;28;20000;-37
2022/03/18 03:22:42;;;;;;;;;;;;;;;0.96;72.87;101796.06;5073475;28;19908;-37
2022/03/18 03:25:08;;;;;;;;;;;;;;;1.30;71.96;101800.13;5073220;28;19959;-37
2022/03/18 03:27:33;;;;;;;;;;;;;;;1.35;71.34;101803.31;5073002;28;19915;-37
2022/03/18 03:29:59;;;;;;;;;;;;;;;1.59;69.41;101802.75;5073490;28;19942;-37
2022/03/18 03:32:25;;;;;;;;;;;;;;;1.36;70.44;101807.63;5073288;28;20319;-37
2022/03/18 03:34:50;;;;;;;;;;;;;;;1.59;70.64;101807.16;5073369;28;19908;-37
2022/03/18 03:37:16;;;;;;;;;;;;;;;1.53;70.64;101814.47;5070093;28;19966;-37
2022/03/18 03:39:41;;;;;;;;;;;;;;;1.51;71.68;101815.50;5053481;28;19916;-37
2022/03/18 03:42:06;;;;;;;;;;;;;;;1.48;71.79;101818.31;5052529;28;20381;-37
2022/03/18 03:44:32;;;;;;;;;;;;;;;1.53;71.71;101824.13;5052149;28;20388;-37
2022/03/18 03:46:57;;;;;;;;;;;;;;;1.47;72.35;101821.88;5051514;28;20352;-36
2022/03/18 03:49:22;;;;;;;;;;;;;;;1.41;71.74;101820.47;5051923;28;19913;-52
2022/03/18 03:51:48;;;;;;;;;;;;;;;1.27;72.17;101826.53;5052421;28;20284;-49
2022/03/18 03:54:13;;;;;;;;;;;;;;;1.25;72.94;101832.81;5051076;28;19999;-47
2022/03/18 03:56:38;;;;;;;;;;;;;;;1.26;73.46;101837.97;5052124;28;19966;-50
2022/03/18 03:59:03;;;;;;;;;;;;;;;1.21;72.91;101837.41;5052163;28;19921;-51
2022/03/18 04:01:29;;;;;;;;;;;;;;;1.29;73.72;101835.16;5052311;28;19913;-48
2022/03/18 04:03:54;;;;;;;;;;;;;;;1.02;74.96;101839.44;5053122;28;19912;-49
2022/03/18 04:06:20;;;;;;;;;;;;;;;1.05;75.29;101841.84;5064638;28;20368;-48
2022/03/18 04:08:46;;;;;;;;;;;;;;;1.30;74.40;101847.34;5072470;28;19984;-51
2022/03/18 04:11:11;;;;;;;;;;;;;;;1.44;73.77;101843.06;5072502;28;20386;-48
2022/03/18 04:13:37;;;;;;;;;;;;;;;1.33;74.97;101848.94;5072520;28;20347;-49
2022/03/18 04:16:02;;;;;;;;;;;;;;;1.16;75.29;101845.56;5072292;28;19908;-47
2022/03/18 04:18:27;;;;;;;;;;;;;;;1.24;75.10;101855.59;5072422;28;19909;-49
2022/03/18 04:20:53;;;;;;;;;;;;;;;0.98;75.47;101854.50;5072366;28;20010;-50
2022/03/18 04:23:18;;;;;;;;;;;;;;;1.03;74.32;101844.59;5071899;28;20340;-53
2022/03/18 04:25:43;;;;;;;;;;;;;;;1.20;78.34;101848.84;5071763;28;19954;-54
2022/03/18 04:28:09;;;;;;;;;;;;;;;1.36;75.32;101854.84;5072380;28;19908;-50
2022/03/18 04:30:35;;;;;;;;;;;;;;;1.46;82.71;101862.16;5071633;28;20289;-48
2022/03/18 04:33:00;;;;;;;;;;;;;;;1.75;76.50;101860.38;5071114;28;19977;-51
2022/03/18 04:35:26;;;;;;;;;;;;;;;3.05;81.88;101861.69;5070376;28;19974;-50
2022/03/18 04:37:51;;;;;;;;;;;;;;;2.30;70.32;101861.34;5063107;28;20356;-53
2022/03/18 04:40:17;;;;;;;;;;;;;;;1.61;71.88;101868.28;5051294;28;20388;-52
2022/03/18 04:42:42;;;;;;;;;;;;;;;1.60;73.35;101867.44;5050972;28;20300;-51
2022/03/18 04:45:08;;;;;;;;;;;;;;;1.40;73.74;101870.41;5050008;28;19908;-52
2022/03/18 04:47:34;;;;;;;;;;;;;;;1.44;73.34;101872.75;5049962;28;20484;-52
2022/03/18 04:50:00;;;;;;;;;;;;;;;1.42;73.19;101873.78;5050059;28;19967;-52
2022/03/18 04:52:26;;;;;;;;;;;;;;;1.38;72.99;101873.13;5049687;28;20529;-53
2022/03/18 04:54:51;;;;;;;;;;;;;;;1.42;73.48;101879.03;5049963;28;19908;-56
2022/03/18 04:57:18;;;;;;;;;;;;;;;1.53;73.48;101882.69;5049803;28;19967;-49
2022/03/18 04:59:44;;;;;;;;;;;;;;;1.67;71.61;101878.38;5049853;28;19913;-51
2022/03/18 05:02:10;;;;;;;;;;;;;;;1.71;72.39;101885.13;5050998;28;19909;-52
2022/03/18 05:04:36;;;;;;;;;;;;;;;1.75;71.97;101884.00;5049823;28;19917;-51
2022/03/18 05:07:01;;;;;;;;;;;;;;;1.87;71.34;101891.16;5065915;28;19904;-51
2022/03/18 05:09:26;;;;;;;;;;;;;;;2.11;72.87;101891.41;5059434;28;19909;-49
2022/03/18 05:11:52;;;;;;;;;;;;;;;2.22;70.32;101892.50;5042296;28;19967;-52
2022/03/18 05:14:17;;;;;;;;;;;;;;;2.29;70.91;101897.28;5030993;28;20045;-52
2022/03/18 05:16:42;;;;;;;;;;;;;;;2.81;70.00;101898.34;5033819;28;19913;-50
2022/03/18 05:19:09;;;;;;;;;;;;;;;2.91;68.63;101898.56;5050776;28;19999;-51
2022/03/18 05:21:34;;;;;;;;;;;;;;;3.07;66.70;101896.63;5051066;28;19927;-50
2022/03/18 05:23:59;;;;;;;;;;;;;;;3.35;65.93;101899.19;5048433;28;19912;-52
2022/03/18 05:26:25;;;;;;;;;;;;;;;4.23;65.17;101904.53;5046684;28;19923;-52
2022/03/18 05:28:50;;;;;;;;;;;;;;;4.27;62.03;101903.34;5033527;28;20409;-48
2022/03/18 05:31:15;;;;;;;;;;;;;;;4.58;60.80;101906.41;5038733;28;19916;-51
2022/03/18 05:33:41;;;;;;;;;;;;;;;4.04;62.47;101915.53;5050728;28;19913;-51
2022/03/18 05:36:06;;;;;;;;;;;;;;;4.15;61.83;101925.28;5050823;28;20364;-51
2022/03/18 05:38:32;;;;;;;;;;;;;;;4.37;60.77;101925.44;5050277;28;19915;-50
2022/03/18 05:40:57;;;;;;;;;;;;;;;4.57;60.10;101928.44;5049594;28;19913;-53
2022/03/18 05:43:22;;;;;;;;;;;;;;;5.45;57.93;101926.28;5049033;28;20053;-50
2022/03/18 05:45:48;;;;;;;;;;;;;;;5.22;57.60;101924.56;5047640;28;19915;-51
2022/03/18 05:48:13;;;;;;;;;;;;;;;5.15;58.02;101936.53;5049036;28;19932;-49
2022/03/18 05:50:38;;;;;;;;;;;;;;;5.36;57.47;101928.78;5048179;28;19909;-50
2022/03/18 05:53:04;;;;;;;;;;;;;;;5.15;57.91;101939.16;5046819;28;19991;-48
2022/03/18 05:58:16;;;;;;;;;;;;;;;5.66;56.03;101950.22;5048517;28;20304;-49
2022/03/18 06:00:45;;;;;;;;;;;;;;;6.16;56.42;101949.94;5048272;28;19916;-51
2022/03/18 06:03:10;;;;;;;;;;;;;;;6.77;53.81;101957.41;5047957;28;19931;-48
2022/03/18 06:05:36;;;;;;;;;;;;;;;6.71;53.26;101952.63;5053706;28;20351;-49
2022/03/18 06:11:48;;;;;;;;;;;;;;;6.58;53.72;101958.06;5068484;28;19908;-50
2022/03/18 06:13:31;;;;;;;;;;;;;;;6.26;53.87;101963.25;5049544;28;19915;-38
2022/03/18 06:15:56;;;;;;;;;;;;;;;6.37;53.79;101965.91;5049428;28;19909;-38
2022/03/18 06:18:21;;;;;;;;;;;;;;;7.47;51.43;101971.09;5052915;28;19915;-38
2022/03/18 06:20:50;;;;;;;;;;;;;;;7.71;50.24;101975.28;5053434;28;19917;-38
2022/03/18 06:23:15;;;;;;;;;;;;;;;7.32;50.26;101975.84;5053224;28;19947;-38
2022/03/18 06:25:42;;;;;;;;;;;;;;;7.12;50.08;101966.94;5059754;28;19920;-37
2022/03/18 06:28:08;;;;;;;;;;;;;;;6.97;49.59;101968.19;5073044;28;19914;-38
2022/03/18 06:30:33;;;;;;;;;;;;;;;7.19;49.52;101969.91;5073017;28;19908;-38
2022/03/18 06:32:58;;;;;;;;;;;;;;;7.33;48.90;101974.03;5072533;28;20395;-38
2022/03/18 06:35:23;;;;;;;;;;;;;;;8.06;48.24;101977.56;5073051;28;19935;-38
2022/03/18 06:37:49;;;;;;;;;;;;;;;8.46;46.10;101976.78;5073434;28;20433;-37
2022/03/18 06:40:14;;;;;;;;;;;;;;;8.23;46.75;101976.13;5073147;28;19913;-37
2022/03/18 06:42:39;;;;;;;;;;;;;;;7.99;47.16;101987.84;5073191;28;19908;-38
2022/03/18 06:45:05;;;;;;;;;;;;;;;8.13;46.00;101980.53;5072881;28;19912;-37
2022/03/18 06:47:30;;;;;;;;;;;;;;;8.46;45.96;101989.22;5071737;28;19947;-39
2022/03/18 06:49:55;;;;;;;;;;;;;;;8.21;45.12;101986.03;5073309;28;19916;-39
2022/03/18 06:52:20;;;;;;;;;;;;;;;9.43;44.14;101989.34;5072074;28;19916;-38
2022/03/18 06:54:46;;;;;;;;;;;;;;;9.06;44.17;101995.31;5072547;28;20509;-38
2022/03/18 06:57:12;;;;;;;;;;;;;;;8.84;44.15;101993.78;5072611;28;19909;-38
2022/03/18 06:59:39;;;;;;;;;;;;;;;8.95;43.16;101998.97;5072581;28;20017;-38
2022/03/18 07:02:04;;;;;;;;;;;;;;;9.27;42.43;101989.91;5072555;28;20394;-38
2022/03/18 07:04:30;;;;;;;;;;;;;;;9.16;41.65;102006.00;5072589;28;19931;-38
2022/03/18 07:06:55;;;;;;;;;;;;;;;9.19;40.19;102013.66;5054887;28;20268;-38
2022/03/18 07:09:20;;;;;;;;;;;;;;;9.45;39.06;102008.63;5051545;28;19915;-38
2022/03/18 07:11:45;;;;;;;;;;;;;;;9.28;38.70;101999.53;5052381;28;19916;-38
2022/03/18 07:14:11;;;;;;;;;;;;;;;9.34;38.24;102008.78;5051809;28;19908;-38
2022/03/18 07:19:20;;;;;;;;;;;;;;;8.77;37.80;102006.75;5052431;28;19920;-38
2022/03/18 07:21:46;;;;;;;;;;;;;;;8.65;37.30;102007.03;5052370;28;19942;-38
2022/03/18 07:24:12;;;;;;;;;;;;;;;8.77;38.10;102005.91;5052198;28;19913;-38
2022/03/18 07:26:37;;;;;;;;;;;;;;;8.74;36.43;102009.69;5067521;28;19997;-37
2022/03/18 07:29:04;;;;;;;;;;;;;;;8.86;35.93;102010.41;5072645;28;19915;-38
2022/03/18 07:31:30;;;;;;;;;;;;;;;8.72;34.89;102011.66;5072153;28;19915;-37
2022/03/18 07:33:55;;;;;;;;;;;;;;;8.60;36.95;102002.97;5071867;28;19912;-38
2022/03/18 07:36:20;;;;;;;;;;;;;;;8.09;36.89;102003.84;5072132;28;20032;-38
2022/03/18 07:38:46;;;;;;;;;;;;;;;7.55;38.15;102005.72;5071882;28;19958;-38
2022/03/18 07:41:12;;;;;;;;;;;;;;;7.73;37.95;102005.16;5071874;28;20364;-38
2022/03/18 07:43:37;;;;;;;;;;;;;;;7.67;38.00;102011.81;5072162;28;19932;-38
2022/03/18 07:46:02;;;;;;;;;;;;;;;7.89;38.53;102010.84;5071813;28;19908;-38
2022/03/18 07:48:28;;;;;;;;;;;;;;;7.97;37.28;102015.47;5071743;28;19987;-38
2022/03/18 07:50:54;;;;;;;;;;;;;;;7.52;36.56;102031.63;5071862;28;19931;-37
2022/03/18 07:53:19;;;;;;;;;;;;;;;6.73;35.00;102022.13;5071623;28;20296;-38
2022/03/18 07:55:45;;;;;;;;;;;;;;;5.98;35.04;102017.47;5071984;28;19912;-38
2022/03/18 07:58:10;;;;;;;;;;;;;;;5.85;35.24;102018.34;5070305;28;19962;-38
2022/03/18 08:00:36;;;;;;;;;;;;;;;5.73;37.31;102014.03;5071488;28;19919;-39
2022/03/18 08:03:01;;;;;;;;;;;;;;;5.91;36.86;102009.13;5071773;28;20372;-39
2022/03/18 08:05:26;;;;;;;;;;;;;;;5.93;38.82;102004.56;5066591;28;20339;-39
2022/03/18 08:07:52;;;;;;;;;;;;;;;6.03;38.49;102008.19;5051297;28;19909;-37
2022/03/18 08:10:18;;;;;;;;;;;;;;;5.82;37.68;102008.00;5034590;28;19913;-37
2022/03/18 08:12:44;;;;;;;;;;;;;;;5.60;38.03;102014.09;5031352;28;19947;-38
2022/03/18 08:15:13;;;;;;;;;;;;;;;6.70;36.24;102008.31;5031552;28;19909;-38
2022/03/18 08:17:39;;;;;;;;;;;;;;;7.54;34.90;102008.50;5031198;28;19916;-38
2022/03/18 08:20:09;;;;;;;;;;;;;;;7.51;35.22;102003.47;5031398;28;19913;-38
2022/03/18 08:22:34;;;;;;;;;;;;;;;6.98;35.29;102009.56;5031074;28;19916;-38
2022/03/18 08:25:00;;;;;;;;;;;;;;;6.62;35.57;101999.16;5030647;28;19917;-38
2022/03/18 08:27:25;;;;;;;;;;;;;;;7.48;35.54;101993.13;5030879;28;20369;-38
2022/03/18 08:29:53;;;;;;;;;;;;;;;9.10;34.88;101998.56;5031001;28;19966;-38
2022/03/18 08:32:18;;;;;;;;;;;;;;;9.74;33.09;101981.16;5030922;28;19916;-37
2022/03/18 08:34:43;;;;;;;;;;;;;;;9.34;32.66;101995.50;5030813;28;19909;-37
2022/03/18 08:37:10;;;;;;;;;;;;;;;8.98;33.60;101989.88;5031030;28;19909;-38
2022/03/18 08:39:39;;;;;;;;;;;;;;;8.00;32.82;101994.84;5030323;28;20388;-37
2022/03/18 08:42:05;;;;;;;;;;;;;;;7.97;33.92;101981.00;5030682;28;20023;-37
2022/03/18 08:44:30;;;;;;;;;;;;;;;7.83;33.96;101984.84;5030782;28;19996;-38
2022/03/18 08:46:57;;;;;;;;;;;;;;;8.18;31.13;101991.59;5030856;28;19916;-38
2022/03/18 08:49:22;;;;;;;;;;;;;;;8.00;31.21;101978.13;5030808;28;20266;-38
2022/03/18 08:51:48;;;;;;;;;;;;;;;7.31;31.66;101982.16;5030739;28;19924;-37
2022/03/18 08:54:13;;;;;;;;;;;;;;;6.93;33.12;101983.50;5030680;28;20406;-37
2022/03/18 08:56:38;;;;;;;;;;;;;;;7.51;32.51;101988.41;5030639;28;19913;-38
2022/03/18 08:59:06;;;;;;;;;;;;;;;7.47;31.19;101983.50;5030571;28;19916;-37
2022/03/18 09:01:32;;;;;;;;;;;;;;;7.52;32.25;101990.09;5030668;28;19916;-37
2022/03/18 09:03:57;;;;;;;;;;;;;;;8.05;31.75;101975.88;5030727;28;20015;-38
2022/03/18 09:06:22;;;;;;;;;;;;;;;8.36;31.93;101976.72;5055427;28;19959;-38
2022/03/18 09:08:48;;;;;;;;;;;;;;;8.57;32.30;101967.88;5069984;28;19912;-38
2022/03/18 09:11:13;;;;;;;;;;;;;;;8.36;32.22;101968.78;5070151;28;19912;-37
2022/03/18 09:13:38;;;;;;;;;;;;;;;8.60;33.62;101972.91;5070069;28;19909;-38
2022/03/18 09:16:04;;;;;;;;;;;;;;;8.76;32.27;101967.09;5070248;28;20350;-38
2022/03/18 09:18:30;;;;;;;;;;;;;;;8.89;32.63;101967.66;5070226;28;20060;-38
2022/03/18 09:20:55;;;;;;;;;;;;;;;9.54;32.09;101961.78;5070297;28;19958;-38
2022/03/18 09:23:20;;;;;;;;;;;;;;;9.41;32.06;101966.56;5070006;28;19972;-37
2022/03/18 09:25:46;;;;;;;;;;;;;;;9.25;31.73;101964.44;5070049;28;20426;-37
2022/03/18 09:28:11;;;;;;;;;;;;;;;9.33;31.98;101969.91;5070109;28;19962;-38
2022/03/18 09:30:36;;;;;;;;;;;;;;;9.41;31.39;101956.75;5070058;28;20356;-37
2022/03/18 09:33:02;;;;;;;;;;;;;;;9.23;31.49;101961.91;5070227;28;19908;-38
2022/03/18 09:35:27;;;;;;;;;;;;;;;9.66;31.81;101957.97;5070071;28;19915;-38
2022/03/18 09:37:53;;;;;;;;;;;;;;;9.94;30.34;101950.06;5070107;28;19983;-37
2022/03/18 09:40:18;;;;;;;;;;;;;;;9.26;32.68;101963.47;5069861;28;19916;-38
2022/03/18 09:43:02;;;;;;;;;;;;;;;9.40;31.61;101960.38;5070004;28;19908;-37
2022/03/18 09:45:30;;;;;;;;;;;;;;;8.74;31.23;101956.59;5069965;28;20384;-37
2022/03/18 09:47:59;;;;;;;;;;;;;;;8.37;31.13;101948.38;5070241;28;19935;-38
2022/03/18 09:50:25;;;;;;;;;;;;;;;9.20;31.31;101940.97;5069827;28;19909;-38
2022/03/18 09:52:50;;;;;;;;;;;;;;;9.45;31.33;101930.72;5069838;28;19923;-38
2022/03/18 09:55:15;;;;;;;;;;;;;;;9.32;31.29;101942.47;5069794;28;19916;-38
2022/03/18 09:57:41;;;;;;;;;;;;;;;9.44;32.07;101932.53;5069753;28;20014;-38
2022/03/18 10:00:07;;;;;;;;;;;;;;;9.49;31.03;101930.28;5069630;28;20093;-39
2022/03/18 10:02:34;;;;;;;;;;;;;;;9.45;32.49;101931.56;5051557;28;19909;-39
2022/03/18 10:04:59;;;;;;;;;;;;;;;9.85;31.90;101929.66;5069449;28;19908;-38
2022/03/18 10:07:25;;;;;;;;;;;;;;;10.53;30.71;101938.16;5069709;28;19915;-38
2022/03/18 10:10:04;;;;;;;;;;;;;;;10.53;29.82;101930.19;5069860;28;20399;-38
2022/03/18 10:12:33;;;;;;;;;;;;;;;10.13;31.63;101933.19;5069827;28;19916;-38
2022/03/18 10:15:05;;;;;;;;;;;;;;;10.10;29.80;101928.97;5069704;28;19944;-38
2022/03/18 10:17:37;;;;;;;;;;;;;;;9.78;30.27;101927.53;5069845;28;19908;-38
2022/03/18 10:20:03;;;;;;;;;;;;;;;8.61;31.46;101932.13;5069229;28;19917;-38
2022/03/18 10:22:29;;;;;;;;;;;;;;;9.99;31.38;101929.16;5069409;28;19920;-39
2022/03/18 10:24:55;;;;;;;;;;;;;;;9.75;30.10;101922.53;5069418;28;19913;-39
2022/03/18 10:27:20;;;;;;;;;;;;;;;9.36;30.60;101921.78;5069617;28;20002;-38
2022/03/18 10:29:53;;;;;;;;;;;;;;;8.48;30.90;101929.72;5069657;28;19912;-37
2022/03/18 10:32:19;;;;;;;;;;;;;;;8.95;31.22;101934.41;5069516;28;20379;-38
2022/03/18 10:37:44;;;;;;;;;;;;;;;8.53;32.39;101927.50;5070134;28;19915;-37
2022/03/18 10:40:10;;;;;;;;;;;;;;;9.68;31.34;101918.78;5070071;28;20015;-39
2022/03/18 10:42:35;;;;;;;;;;;;;;;9.38;30.60;101917.16;5069599;28;19946;-38
2022/03/18 10:45:02;;;;;;;;;;;;;;;9.52;30.52;101913.22;5069448;28;19932;-38
2022/03/18 10:47:35;;;;;;;;;;;;;;;9.53;30.97;101914.91;5069611;28;19951;-38
2022/03/18 10:50:09;;;;;;;;;;;;;;;9.56;29.38;101911.97;5069766;28;20260;-39
2022/03/18 10:52:35;;;;;;;;;;;;;;;8.79;30.71;101916.34;5069988;28;19912;-38
2022/03/18 10:55:16;;;;;;;;;;;;;;;9.52;31.24;101914.06;5069754;28;19915;-38
2022/03/18 10:57:48;;;;;;;;;;;;;;;10.33;28.94;101905.50;5069460;28;19908;-38
2022/03/18 11:00:14;;;;;;;;;;;;;;;9.54;30.70;101897.97;5069791;28;19930;-37
2022/03/18 11:02:39;;;;;;;;;;;;;;;9.51;28.53;101903.56;5069940;28;19919;-37
2022/03/18 11:05:05;;;;;;;;;;;;;;;9.55;28.46;101889.00;5071245;28;19908;-37
2022/03/18 11:07:30;;;;;;;;;;;;;;;9.66;28.07;101899.47;5053290;28;19974;-38
2022/03/18 11:12:41;;;;;;;;;;;;;;;8.97;29.20;101908.53;5053271;28;19955;-39
2022/03/18 11:15:07;;;;;;;;;;;;;;;8.74;28.95;101910.63;5053055;28;19924;-38
2022/03/18 11:17:33;;;;;;;;;;;;;;;9.03;30.96;101902.66;5052570;28;19909;-37
2022/03/18 11:19:59;;;;;;;;;;;;;;;9.32;30.42;101899.97;5052458;28;19962;-37
2022/03/18 11:22:25;;;;;;;;;;;;;;;9.09;30.59;101906.56;5052858;28;19920;-38
2022/03/18 11:24:51;;;;;;;;;;;;;;;9.57;29.34;101893.19;5053206;28;20027;-38
2022/03/18 11:27:17;;;;;;;;;;;;;;;9.42;30.02;101896.47;5052550;28;19954;-37
2022/03/18 11:29:43;;;;;;;;;;;;;;;9.41;32.28;101889.47;5052710;28;20068;-38
2022/03/18 11:32:12;;;;;;;;;;;;;;;9.37;32.35;101892.41;5052792;28;19908;-38
2022/03/18 11:34:57;;;;;;;;;;;;;;;9.31;31.24;101884.16;5052457;28;19909;-38
2022/03/18 11:37:25;;;;;;;;;;;;;;;9.47;30.46;101872.94;5034660;28;19908;-37
2022/03/18 11:39:50;;;;;;;;;;;;;;;9.43;31.46;101874.22;5052346;28;20396;-38
2022/03/18 11:42:19;;;;;;;;;;;;;;;9.38;31.13;101874.63;5052427;28;19955;-38
2022/03/18 11:44:49;;;;;;;;;;;;;;;10.38;30.40;101881.09;5052625;28;19905;-38
2022/03/18 11:47:20;;;;;;;;;;;;;;;9.41;30.64;101876.19;5052500;28;19908;-38
2022/03/18 11:49:49;;;;;;;;;;;;;;;8.60;30.80;101877.34;5052835;28;20013;-38
2022/03/18 11:52:14;;;;;;;;;;;;;;;8.87;31.03;101874.03;5052826;28;19908;-38
2022/03/18 11:54:50;;;;;;;;;;;;;;;8.76;31.58;101872.34;5052866;28;20432;-38
2022/03/18 11:57:31;;;;;;;;;;;;;;;8.88;31.18;101874.88;5052998;28;19909;-36
2022/03/18 12:00:00;;;;;;;;;;;;;;;9.56;30.51;101861.47;5052420;28;20342;-36
2022/03/18 12:02:35;;;;;;;;;;;;;;;10.04;30.20;101859.56;5052668;28;20304;-38
2022/03/18 12:05:01;;;;;;;;;;;;;;;10.16;29.21;101867.19;5052564;28;19909;-38
2022/03/18 12:07:28;;;;;;;;;;;;;;;9.19;28.51;101855.13;5052640;28;19908;-38
2022/03/18 12:09:55;;;;;;;;;;;;;;;8.19;30.61;101860.66;5052603;28;19909;-38
2022/03/18 12:12:32;;;;;;;;;;;;;;;8.26;32.03;101853.81;5052566;28;19916;-39
2022/03/18 12:15:03;;;;;;;;;;;;;;;8.92;30.04;101855.84;5051423;28;19916;-38
2022/03/18 12:17:28;;;;;;;;;;;;;;;9.67;29.00;101847.13;5052156;28;19908;-39
2022/03/18 12:19:55;;;;;;;;;;;;;;;8.83;29.79;101848.72;5052173;28;19920;-38
2022/03/18 12:22:22;;;;;;;;;;;;;;;8.27;30.55;101844.06;5051711;28;19932;-38
2022/03/18 12:24:48;;;;;;;;;;;;;;;7.59;31.54;101848.16;5051395;28;20010;-38
2022/03/18 12:27:15;;;;;;;;;;;;;;;7.14;32.97;101847.63;5052329;28;19915;-38
2022/03/18 12:29:40;;;;;;;;;;;;;;;7.55;33.62;101844.09;5051546;28;19909;-38
2022/03/18 12:32:08;;;;;;;;;;;;;;;8.01;31.82;101840.09;5051317;28;20361;-37
2022/03/18 12:34:35;;;;;;;;;;;;;;;8.10;31.60;101833.13;5051381;28;20031;-37
2022/03/18 12:37:01;;;;;;;;;;;;;;;8.08;32.11;101837.72;5051543;28;19909;-38
2022/03/18 12:39:26;;;;;;;;;;;;;;;8.22;31.86;101828.53;5051460;28;19912;-38
2022/03/18 12:42:03;;;;;;;;;;;;;;;7.80;33.50;101824.25;5051541;28;19999;-38
2022/03/18 12:44:32;;;;;;;;;;;;;;;7.91;32.75;101825.97;5052062;28;19940;-37
2022/03/18 12:46:59;;;;;;;;;;;;;;;9.12;30.57;101823.94;5052184;28;19942;-38
2022/03/18 12:49:37;;;;;;;;;;;;;;;8.85;30.45;101816.72;5051851;28;19981;-50
2022/03/18 12:52:07;;;;;;;;;;;;;;;8.58;30.21;101819.09;5051659;28;19909;-50
2022/03/18 12:54:33;;;;;;;;;;;;;;;8.56;30.43;101817.56;5051558;28;19909;-52
2022/03/18 12:56:58;;;;;;;;;;;;;;;8.52;30.78;101810.88;5051636;28;19908;-52
2022/03/18 12:59:24;;;;;;;;;;;;;;;8.44;31.12;101821.34;5051036;28;19954;-51
2022/03/18 13:01:50;;;;;;;;;;;;;;;8.96;30.52;101812.09;5051485;28;19924;-50
2022/03/18 13:04:17;;;;;;;;;;;;;;;9.57;29.46;101807.28;5051480;28;19999;-51
2022/03/18 13:06:42;;;;;;;;;;;;;;;8.70;31.07;101797.72;5053737;28;19922;-50